My Meet Scores
Alyssa Insley, Gym Kinetics Gymnastics - MyMeetScores.com
Top100 | Top Teams | Upcoming Meets | Completed Meets | Latest | Add Scores | Help| Support | Bookmark and Share

Alyssa Insley, Gym Kinetics Gymnastics
Personal Bests
LevelVault BarsBeamFloorAA
39.2509.500 9.4259.05036.500
48.8509.600 9.2759.00035.675
59.3009.275 9.3758.47535.400
XP9.2009.550 9.5259.22536.975
Meet Scores
Date Meet Team Session Level Division Vault Bars Beam Floor AA
2018-02-03 Midwest Games Gym Kinetics Gymnastics 1 XP SR 9.000 2T 8.800 6 9.375 1 8.650 10 35.825 3
2018-01-19 2018 Bravo Classic Gym Kinetics Gymnastics 11A XP Jr 9.200 5 9.150 4 8.700 11 9.225 9 36.275 5
2017-12-15 2017 Aspire Classic Gym Kinetics Gymnastics 4 XP Younger 9.150 4 9.550 1T 9.525 2 8.750 12T 36.975 1
2017-03-30 2017 Illinois Level 3 & 5 State Gym Kinetics Gymnastics All 5 Sr C 8.450 23 9.275 6T 9.200 8 8.475 23 35.400 15
2017-02-24 Kinetic Classic Gym Kinetics Gymnastics 6 5 All Ages 9.300 4T 9.075 8 9.150 9 7.400 39 34.925 24T
2017-02-09 Hal's Harley-Davidson Invite Gym Kinetics Gymnastics O09 5 12 + 8.600 15 9.075 1 9.375 2 0.000 28 27.050 26
2017-01-13 St Jude Benefit Meet Gym Kinetics Gymnastics 1A 5 Sr B 8.650 13 9.125 4 8.450 13 0.000 16 26.225 16
2016-12-16 2016 Aspire Classic Gym Kinetics Gymnastics 5 5 Older 8.700 13T 9.100 2 8.900 8 7.775 22 34.475 13
2016-03-10 2016 Illinois Level 4 State Meet Gym Kinetics Gymnastics All 4 Jr-F 8.725 9 8.700 21 9.075 10 8.575 23 35.075 16
2016-02-20 Big Classic Gym Kinetics Gymnastics 2B 4 Child C 8.725 13 9.325 7 8.575 14 8.850 11T 35.475 9
2016-01-22 2016 Honkytonk Classic Gym Kinetics Gymnastics 04 4 Jr 8.700 9T 9.475 5 8.500 10 9.000 6T 35.675 9
2016-01-15 2016 Bravo Classic Gym Kinetics Gymnastics 5B 4 10+yrs 8.850 12T 9.350 3 8.575 23 8.800 16T 35.575 13
2015-12-04 2015 Ultimate Wish Classic Gym Kinetics Gymnastics 11A 4 All 8.450 35 9.600 1 9.025 15 8.400 38 35.475 11
2015-03-19 2015 Illinois Level 4 State Championship Gym Kinetics Gymnastics All 4 YouthE 8.775 23 8.950 10 8.950 20 8.800 24 35.475 19
2015-02-21 BIG Classic Gym Kinetics Gymnastics 5A 4 Child C 8.000 16T 9.225 7 9.275 7 8.150 18T 34.650 15
2015-01-23 King Arthur Invitational Gym Kinetics Gymnastics 5 4 JrB 8.300 17 8.675 14 9.100 7 8.700 18 34.775 14
2015-01-09 Legacy Elite Winter Classic 2015 Flipstar Gymnastics Academy 4B 4 Ch C 8.100 9 9.150 3T 8.750 7 8.800 7T 34.800 5
2014-03-07 Illinois Level 3 State Meet Gym Kinetics Gymnastics 1 3 Jr A 9.250 25 9.225 13 9.175 8 8.850 25 36.500 14
2014-02-15 BIG Dream Classic 2014 Gym Kinetics Gymnastics 6A 3 Junior A 9.150 9 9.500 3 8.000 12 9.050 8T 35.700 11
2013-12-19 2013 Hawaiian Pineapple Classic Gym Kinetics Gymnastics A11 3 9 9.050 6T 9.000 4T 9.425 1 8.900 6 36.375 3

www.lazysuits.com